Terminal Aerodrome Forecast
Issued by NWS

Home | Current Version | Previous Version | Text Only | Print | Product List | Glossary On
Versions: 1 2 3 4 5 6 7 8 9 10 11 12
000
FTUS43 KFGF 251700
TAFBJI
TAF
KBJI 251721Z 2518/2618 29018G27KT P6SM SKC
     FM252300 28010KT P6SM SKC
     FM260300 VRB03KT P6SM SKC
     FM261500 13008KT P6SM SCT250=

USA.gov is the U.S. government's official web portal to all federal, state and local government web resources and services.